sensor_id;sensor_type;location;lat;lon;timestamp;temperature;humidity
12811;DHT22;6470;47.654;7.896;2024-02-04T00:01:44;5.70;99.90
12811;DHT22;6470;47.654;7.896;2024-02-04T00:04:10;4.90;99.90
12811;DHT22;6470;47.654;7.896;2024-02-04T00:06:37;5.50;99.90
12811;DHT22;6470;47.654;7.896;2024-02-04T00:09:02;5.20;99.90
12811;DHT22;6470;47.654;7.896;2024-02-04T00:13:56;5.20;99.90
12811;DHT22;6470;47.654;7.896;2024-02-04T00:16:21;5.60;99.90
12811;DHT22;6470;47.654;7.896;2024-02-04T00:18:47;4.70;99.90
12811;DHT22;6470;47.654;7.896;2024-02-04T00:21:13;5.90;99.90
12811;DHT22;6470;47.654;7.896;2024-02-04T00:26:05;5.60;99.90
12811;DHT22;6470;47.654;7.896;2024-02-04T00:30:56;5.60;99.90
12811;DHT22;6470;47.654;7.896;2024-02-04T00:33:24;5.70;99.90
12811;DHT22;6470;47.654;7.896;2024-02-04T00:43:08;4.80;99.90
12811;DHT22;6470;47.654;7.896;2024-02-04T00:45:34;5.50;99.90
12811;DHT22;6470;47.654;7.896;2024-02-04T00:48:00;4.80;99.90
12811;DHT22;6470;47.654;7.896;2024-02-04T00:50:26;5.30;99.90
12811;DHT22;6470;47.654;7.896;2024-02-04T00:52:51;5.00;99.90
12811;DHT22;6470;47.654;7.896;2024-02-04T00:55:19;2.30;99.90
12811;DHT22;6470;47.654;7.896;2024-02-04T00:57:45;4.80;99.90
12811;DHT22;6470;47.654;7.896;2024-02-04T01:00:11;5.70;99.90
12811;DHT22;6470;47.654;7.896;2024-02-04T01:02:39;5.30;99.90
12811;DHT22;6470;47.654;7.896;2024-02-04T01:05:05;5.40;99.90
12811;DHT22;6470;47.654;7.896;2024-02-04T01:07:30;5.10;99.90
12811;DHT22;6470;47.654;7.896;2024-02-04T01:09:56;5.10;99.90
12811;DHT22;6470;47.654;7.896;2024-02-04T01:12:22;5.30;99.90
12811;DHT22;6470;47.654;7.896;2024-02-04T01:19:39;4.70;99.90
12811;DHT22;6470;47.654;7.896;2024-02-04T01:24:32;4.90;99.90
12811;DHT22;6470;47.654;7.896;2024-02-04T01:26:57;2.10;99.90
12811;DHT22;6470;47.654;7.896;2024-02-04T01:29:23;4.60;99.90
12811;DHT22;6470;47.654;7.896;2024-02-04T01:34:15;4.90;99.90
12811;DHT22;6470;47.654;7.896;2024-02-04T01:39:06;4.80;99.90
12811;DHT22;6470;47.654;7.896;2024-02-04T01:41:32;5.00;99.90
12811;DHT22;6470;47.654;7.896;2024-02-04T01:46:24;5.40;99.90
12811;DHT22;6470;47.654;7.896;2024-02-04T01:48:50;4.70;99.90
12811;DHT22;6470;47.654;7.896;2024-02-04T01:51:17;4.50;99.90
12811;DHT22;6470;47.654;7.896;2024-02-04T01:53:46;4.40;99.90
12811;DHT22;6470;47.654;7.896;2024-02-04T01:56:13;4.50;99.90
12811;DHT22;6470;47.654;7.896;2024-02-04T01:58:39;5.20;99.90
12811;DHT22;6470;47.654;7.896;2024-02-04T02:03:31;4.80;99.90
12811;DHT22;6470;47.654;7.896;2024-02-04T02:05:57;5.10;99.90
12811;DHT22;6470;47.654;7.896;2024-02-04T02:08:23;5.50;99.90
12811;DHT22;6470;47.654;7.896;2024-02-04T02:10:51;5.20;99.90
12811;DHT22;6470;47.654;7.896;2024-02-04T02:13:28;5.30;99.90
12811;DHT22;6470;47.654;7.896;2024-02-04T02:16:13;4.60;99.90
12811;DHT22;6470;47.654;7.896;2024-02-04T02:18:48;5.10;99.90
12811;DHT22;6470;47.654;7.896;2024-02-04T02:23:53;5.30;99.90
12811;DHT22;6470;47.654;7.896;2024-02-04T02:28:49;4.50;99.90
12811;DHT22;6470;47.654;7.896;2024-02-04T02:31:15;4.90;99.90
12811;DHT22;6470;47.654;7.896;2024-02-04T02:33:41;5.20;99.90
12811;DHT22;6470;47.654;7.896;2024-02-04T02:36:12;5.40;99.90
12811;DHT22;6470;47.654;7.896;2024-02-04T02:41:34;5.50;99.90
12811;DHT22;6470;47.654;7.896;2024-02-04T02:44:01;5.00;99.90
12811;DHT22;6470;47.654;7.896;2024-02-04T02:46:28;5.10;99.90
12811;DHT22;6470;47.654;7.896;2024-02-04T02:48:54;5.20;99.90
12811;DHT22;6470;47.654;7.896;2024-02-04T02:51:20;5.40;99.90
12811;DHT22;6470;47.654;7.896;2024-02-04T02:56:11;5.40;99.90
12811;DHT22;6470;47.654;7.896;2024-02-04T02:58:37;5.30;99.90
12811;DHT22;6470;47.654;7.896;2024-02-04T03:01:03;1.90;99.90
12811;DHT22;6470;47.654;7.896;2024-02-04T03:03:29;5.80;99.90
12811;DHT22;6470;47.654;7.896;2024-02-04T03:05:54;5.40;99.90
12811;DHT22;6470;47.654;7.896;2024-02-04T03:08:20;5.40;99.90
12811;DHT22;6470;47.654;7.896;2024-02-04T03:13:11;5.00;99.90
12811;DHT22;6470;47.654;7.896;2024-02-04T03:15:37;4.90;99.90
12811;DHT22;6470;47.654;7.896;2024-02-04T03:18:03;5.70;99.90
12811;DHT22;6470;47.654;7.896;2024-02-04T03:20:29;5.40;99.90
12811;DHT22;6470;47.654;7.896;2024-02-04T03:22:55;5.60;99.90
12811;DHT22;6470;47.654;7.896;2024-02-04T03:25:21;5.40;99.90
12811;DHT22;6470;47.654;7.896;2024-02-04T03:27:49;5.30;99.90
12811;DHT22;6470;47.654;7.896;2024-02-04T03:30:15;5.30;99.90
12811;DHT22;6470;47.654;7.896;2024-02-04T03:32:40;5.40;99.90
12811;DHT22;6470;47.654;7.896;2024-02-04T03:35:06;5.70;99.90
12811;DHT22;6470;47.654;7.896;2024-02-04T03:37:32;5.60;99.90
12811;DHT22;6470;47.654;7.896;2024-02-04T03:39:58;5.10;99.90
12811;DHT22;6470;47.654;7.896;2024-02-04T03:42:23;5.20;99.90
12811;DHT22;6470;47.654;7.896;2024-02-04T03:44:49;4.30;99.90
12811;DHT22;6470;47.654;7.896;2024-02-04T03:47:15;6.10;99.90
12811;DHT22;6470;47.654;7.896;2024-02-04T03:49:40;5.20;99.90
12811;DHT22;6470;47.654;7.896;2024-02-04T03:54:32;2.10;99.90
12811;DHT22;6470;47.654;7.896;2024-02-04T03:56:58;5.00;99.90
12811;DHT22;6470;47.654;7.896;2024-02-04T04:01:50;4.50;99.90
12811;DHT22;6470;47.654;7.896;2024-02-04T04:04:16;5.40;99.90
12811;DHT22;6470;47.654;7.896;2024-02-04T04:06:45;5.40;99.90
12811;DHT22;6470;47.654;7.896;2024-02-04T04:09:12;4.50;99.90
12811;DHT22;6470;47.654;7.896;2024-02-04T04:14:04;5.70;99.90
12811;DHT22;6470;47.654;7.896;2024-02-04T04:16:29;5.20;99.90
12811;DHT22;6470;47.654;7.896;2024-02-04T04:21:21;4.80;99.90
12811;DHT22;6470;47.654;7.896;2024-02-04T04:23:47;5.60;99.90
12811;DHT22;6470;47.654;7.896;2024-02-04T04:26:12;4.50;99.90
12811;DHT22;6470;47.654;7.896;2024-02-04T04:28:38;5.20;99.90
12811;DHT22;6470;47.654;7.896;2024-02-04T04:31:04;5.30;99.90
12811;DHT22;6470;47.654;7.896;2024-02-04T04:35:56;5.40;99.90
12811;DHT22;6470;47.654;7.896;2024-02-04T04:38:21;2.10;99.90
12811;DHT22;6470;47.654;7.896;2024-02-04T04:40:47;5.40;99.90
12811;DHT22;6470;47.654;7.896;2024-02-04T04:43:13;5.30;99.90
12811;DHT22;6470;47.654;7.896;2024-02-04T04:45:39;5.40;99.90
12811;DHT22;6470;47.654;7.896;2024-02-04T04:48:05;5.80;99.90
12811;DHT22;6470;47.654;7.896;2024-02-04T04:50:33;5.80;99.90
12811;DHT22;6470;47.654;7.896;2024-02-04T04:55:25;5.50;99.90
12811;DHT22;6470;47.654;7.896;2024-02-04T04:57:51;5.70;99.90
12811;DHT22;6470;47.654;7.896;2024-02-04T05:00:18;4.80;99.90
12811;DHT22;6470;47.654;7.896;2024-02-04T05:02:43;5.40;99.90
12811;DHT22;6470;47.654;7.896;2024-02-04T05:05:13;5.70;99.90
12811;DHT22;6470;47.654;7.896;2024-02-04T05:10:05;5.60;99.90
12811;DHT22;6470;47.654;7.896;2024-02-04T05:12:32;5.60;99.90
12811;DHT22;6470;47.654;7.896;2024-02-04T05:17:24;4.90;99.90
12811;DHT22;6470;47.654;7.896;2024-02-04T05:19:50;5.30;99.90
12811;DHT22;6470;47.654;7.896;2024-02-04T05:22:15;5.70;99.90
12811;DHT22;6470;47.654;7.896;2024-02-04T05:24:41;5.40;99.90
12811;DHT22;6470;47.654;7.896;2024-02-04T05:27:07;5.00;99.90
12811;DHT22;6470;47.654;7.896;2024-02-04T05:29:33;1.90;99.90
12811;DHT22;6470;47.654;7.896;2024-02-04T05:31:59;5.50;99.90
12811;DHT22;6470;47.654;7.896;2024-02-04T05:36:50;5.50;99.90
12811;DHT22;6470;47.654;7.896;2024-02-04T05:41:42;4.80;99.90
12811;DHT22;6470;47.654;7.896;2024-02-04T05:44:09;5.30;99.90
12811;DHT22;6470;47.654;7.896;2024-02-04T05:46:38;5.80;99.90
12811;DHT22;6470;47.654;7.896;2024-02-04T05:49:04;5.90;99.90
12811;DHT22;6470;47.654;7.896;2024-02-04T05:51:40;2.50;99.90
12811;DHT22;6470;47.654;7.896;2024-02-04T05:54:07;5.60;99.90
12811;DHT22;6470;47.654;7.896;2024-02-04T05:56:32;5.50;99.90
12811;DHT22;6470;47.654;7.896;2024-02-04T05:58:58;2.70;99.90
12811;DHT22;6470;47.654;7.896;2024-02-04T06:01:24;5.20;99.90
12811;DHT22;6470;47.654;7.896;2024-02-04T06:03:50;2.40;99.90
12811;DHT22;6470;47.654;7.896;2024-02-04T06:06:16;5.80;99.90
12811;DHT22;6470;47.654;7.896;2024-02-04T06:08:43;5.90;99.90
12811;DHT22;6470;47.654;7.896;2024-02-04T06:11:12;5.30;99.90
12811;DHT22;6470;47.654;7.896;2024-02-04T06:13:43;5.10;99.90
12811;DHT22;6470;47.654;7.896;2024-02-04T06:16:09;5.40;99.90
12811;DHT22;6470;47.654;7.896;2024-02-04T06:18:38;5.50;99.90
12811;DHT22;6470;47.654;7.896;2024-02-04T06:21:07;5.30;99.90
12811;DHT22;6470;47.654;7.896;2024-02-04T06:23:33;2.50;99.90
12811;DHT22;6470;47.654;7.896;2024-02-04T06:25:59;5.00;99.90
12811;DHT22;6470;47.654;7.896;2024-02-04T06:28:25;5.70;99.90
12811;DHT22;6470;47.654;7.896;2024-02-04T06:30:51;5.40;99.90
12811;DHT22;6470;47.654;7.896;2024-02-04T06:33:16;5.90;99.90
12811;DHT22;6470;47.654;7.896;2024-02-04T06:35:42;5.40;99.90
12811;DHT22;6470;47.654;7.896;2024-02-04T06:38:08;5.60;99.90
12811;DHT22;6470;47.654;7.896;2024-02-04T06:40:34;2.20;99.90
12811;DHT22;6470;47.654;7.896;2024-02-04T06:42:59;5.90;99.90
12811;DHT22;6470;47.654;7.896;2024-02-04T06:45:25;6.10;99.90
12811;DHT22;6470;47.654;7.896;2024-02-04T06:47:51;5.60;99.90
12811;DHT22;6470;47.654;7.896;2024-02-04T06:50:16;6.10;99.90
12811;DHT22;6470;47.654;7.896;2024-02-04T06:52:46;5.80;99.90
12811;DHT22;6470;47.654;7.896;2024-02-04T06:55:12;5.70;99.90
12811;DHT22;6470;47.654;7.896;2024-02-04T06:57:38;5.80;99.90
12811;DHT22;6470;47.654;7.896;2024-02-04T07:00:06;5.90;99.90
12811;DHT22;6470;47.654;7.896;2024-02-04T07:02:34;5.50;99.90
12811;DHT22;6470;47.654;7.896;2024-02-04T07:04:59;5.40;99.90
12811;DHT22;6470;47.654;7.896;2024-02-04T07:07:25;5.60;99.90
12811;DHT22;6470;47.654;7.896;2024-02-04T07:09:51;5.50;99.90
12811;DHT22;6470;47.654;7.896;2024-02-04T07:12:17;5.20;99.90
12811;DHT22;6470;47.654;7.896;2024-02-04T07:17:08;5.70;99.90
12811;DHT22;6470;47.654;7.896;2024-02-04T07:19:34;2.20;99.90
12811;DHT22;6470;47.654;7.896;2024-02-04T07:22:01;5.80;99.90
12811;DHT22;6470;47.654;7.896;2024-02-04T07:24:26;5.50;99.90
12811;DHT22;6470;47.654;7.896;2024-02-04T07:26:52;5.40;99.90
12811;DHT22;6470;47.654;7.896;2024-02-04T07:29:18;5.20;99.90
12811;DHT22;6470;47.654;7.896;2024-02-04T07:31:43;5.60;99.90
12811;DHT22;6470;47.654;7.896;2024-02-04T07:34:09;5.50;99.90
12811;DHT22;6470;47.654;7.896;2024-02-04T07:41:30;6.20;99.90
12811;DHT22;6470;47.654;7.896;2024-02-04T07:43:56;5.20;99.90
12811;DHT22;6470;47.654;7.896;2024-02-04T07:46:21;6.00;99.90
12811;DHT22;6470;47.654;7.896;2024-02-04T07:48:47;5.80;99.90
12811;DHT22;6470;47.654;7.896;2024-02-04T07:51:13;3.00;99.90
12811;DHT22;6470;47.654;7.896;2024-02-04T07:53:39;5.60;99.90
12811;DHT22;6470;47.654;7.896;2024-02-04T07:58:32;6.20;99.90
12811;DHT22;6470;47.654;7.896;2024-02-04T08:03:24;5.80;99.90
12811;DHT22;6470;47.654;7.896;2024-02-04T08:05:50;5.50;99.90
12811;DHT22;6470;47.654;7.896;2024-02-04T08:08:16;5.60;99.90
12811;DHT22;6470;47.654;7.896;2024-02-04T08:10:42;5.50;99.90
12811;DHT22;6470;47.654;7.896;2024-02-04T08:13:07;6.00;99.90
12811;DHT22;6470;47.654;7.896;2024-02-04T08:15:33;5.60;99.90
12811;DHT22;6470;47.654;7.896;2024-02-04T08:17:59;5.70;99.90
12811;DHT22;6470;47.654;7.896;2024-02-04T08:20:25;2.60;99.90
12811;DHT22;6470;47.654;7.896;2024-02-04T08:22:51;6.00;99.90
12811;DHT22;6470;47.654;7.896;2024-02-04T08:25:17;5.90;99.90
12811;DHT22;6470;47.654;7.896;2024-02-04T08:27:43;5.50;99.90
12811;DHT22;6470;47.654;7.896;2024-02-04T08:30:10;5.70;99.90
12811;DHT22;6470;47.654;7.896;2024-02-04T08:32:37;5.80;99.90
12811;DHT22;6470;47.654;7.896;2024-02-04T08:35:04;6.20;99.90
12811;DHT22;6470;47.654;7.896;2024-02-04T08:37:30;5.40;99.90
12811;DHT22;6470;47.654;7.896;2024-02-04T08:42:21;5.80;99.90
12811;DHT22;6470;47.654;7.896;2024-02-04T08:44:47;6.10;99.90
12811;DHT22;6470;47.654;7.896;2024-02-04T08:47:14;6.20;99.90
12811;DHT22;6470;47.654;7.896;2024-02-04T08:49:42;6.50;99.90
12811;DHT22;6470;47.654;7.896;2024-02-04T08:54:33;5.90;99.90
12811;DHT22;6470;47.654;7.896;2024-02-04T08:56:59;5.90;99.90
12811;DHT22;6470;47.654;7.896;2024-02-04T09:01:51;3.00;99.90
12811;DHT22;6470;47.654;7.896;2024-02-04T09:06:43;6.60;99.90
12811;DHT22;6470;47.654;7.896;2024-02-04T09:09:08;3.10;99.90
12811;DHT22;6470;47.654;7.896;2024-02-04T09:16:28;6.10;99.90
12811;DHT22;6470;47.654;7.896;2024-02-04T09:18:53;6.70;99.90
12811;DHT22;6470;47.654;7.896;2024-02-04T09:21:19;6.20;99.90
12811;DHT22;6470;47.654;7.896;2024-02-04T09:23:45;6.00;99.90
12811;DHT22;6470;47.654;7.896;2024-02-04T09:26:11;6.10;99.90
12811;DHT22;6470;47.654;7.896;2024-02-04T09:28:36;6.60;99.90
12811;DHT22;6470;47.654;7.896;2024-02-04T09:35:55;6.20;99.90
12811;DHT22;6470;47.654;7.896;2024-02-04T09:38:21;6.60;99.90
12811;DHT22;6470;47.654;7.896;2024-02-04T09:40:46;6.80;99.90
12811;DHT22;6470;47.654;7.896;2024-02-04T09:45:39;3.70;99.90
12811;DHT22;6470;47.654;7.896;2024-02-04T09:48:06;6.50;99.90
12811;DHT22;6470;47.654;7.896;2024-02-04T09:53:00;6.50;99.90
12811;DHT22;6470;47.654;7.896;2024-02-04T09:55:29;6.80;99.90
12811;DHT22;6470;47.654;7.896;2024-02-04T09:57:56;6.80;99.90
12811;DHT22;6470;47.654;7.896;2024-02-04T10:00:22;3.80;99.90
12811;DHT22;6470;47.654;7.896;2024-02-04T10:02:48;3.60;99.90
12811;DHT22;6470;47.654;7.896;2024-02-04T10:05:15;6.90;99.90
12811;DHT22;6470;47.654;7.896;2024-02-04T10:10:07;7.00;99.90
12811;DHT22;6470;47.654;7.896;2024-02-04T10:12:33;7.00;99.90
12811;DHT22;6470;47.654;7.896;2024-02-04T10:17:30;7.00;99.90
12811;DHT22;6470;47.654;7.896;2024-02-04T10:19:57;7.10;99.90
12811;DHT22;6470;47.654;7.896;2024-02-04T10:27:18;7.40;99.90
12811;DHT22;6470;47.654;7.896;2024-02-04T10:29:44;6.50;99.90
12811;DHT22;6470;47.654;7.896;2024-02-04T10:32:10;7.60;99.90
12811;DHT22;6470;47.654;7.896;2024-02-04T10:34:39;7.50;99.90
12811;DHT22;6470;47.654;7.896;2024-02-04T10:37:05;7.20;99.90
12811;DHT22;6470;47.654;7.896;2024-02-04T10:42:02;7.50;99.90
12811;DHT22;6470;47.654;7.896;2024-02-04T10:44:32;7.50;99.90
12811;DHT22;6470;47.654;7.896;2024-02-04T10:47:05;7.30;99.90
12811;DHT22;6470;47.654;7.896;2024-02-04T10:49:33;7.70;99.90
12811;DHT22;6470;47.654;7.896;2024-02-04T10:54:27;7.70;99.90
12811;DHT22;6470;47.654;7.896;2024-02-04T10:57:01;7.40;99.90
12811;DHT22;6470;47.654;7.896;2024-02-04T10:59:29;7.80;99.90
12811;DHT22;6470;47.654;7.896;2024-02-04T11:01:56;7.80;99.90
12811;DHT22;6470;47.654;7.896;2024-02-04T11:04:22;4.50;99.90
12811;DHT22;6470;47.654;7.896;2024-02-04T11:06:49;7.80;99.90
12811;DHT22;6470;47.654;7.896;2024-02-04T11:11:42;8.10;99.90
12811;DHT22;6470;47.654;7.896;2024-02-04T11:14:12;8.60;99.90
12811;DHT22;6470;47.654;7.896;2024-02-04T11:25:56;7.40;99.90
12811;DHT22;6470;47.654;7.896;2024-02-04T11:27:57;8.30;99.90
12811;DHT22;6470;47.654;7.896;2024-02-04T11:30:23;9.30;99.90
12811;DHT22;6470;47.654;7.896;2024-02-04T11:32:49;8.90;99.90
12811;DHT22;6470;47.654;7.896;2024-02-04T11:35:14;8.40;99.90
12811;DHT22;6470;47.654;7.896;2024-02-04T11:40:15;9.00;99.90
12811;DHT22;6470;47.654;7.896;2024-02-04T11:42:45;8.70;99.90
12811;DHT22;6470;47.654;7.896;2024-02-04T11:45:14;8.80;99.90
12811;DHT22;6470;47.654;7.896;2024-02-04T11:50:07;9.00;99.90
12811;DHT22;6470;47.654;7.896;2024-02-04T11:52:33;9.20;99.90
12811;DHT22;6470;47.654;7.896;2024-02-04T11:54:59;8.70;99.90
12811;DHT22;6470;47.654;7.896;2024-02-04T11:57:25;9.30;99.90
12811;DHT22;6470;47.654;7.896;2024-02-04T11:59:53;9.00;99.90
12811;DHT22;6470;47.654;7.896;2024-02-04T12:02:20;6.20;99.90
12811;DHT22;6470;47.654;7.896;2024-02-04T12:04:49;9.00;99.90
12811;DHT22;6470;47.654;7.896;2024-02-04T12:09:43;9.00;99.90
12811;DHT22;6470;47.654;7.896;2024-02-04T12:12:09;9.00;99.90
12811;DHT22;6470;47.654;7.896;2024-02-04T12:14:36;9.10;99.90
12811;DHT22;6470;47.654;7.896;2024-02-04T12:17:08;9.10;99.90
12811;DHT22;6470;47.654;7.896;2024-02-04T12:19:35;9.30;99.90
12811;DHT22;6470;47.654;7.896;2024-02-04T12:26:58;8.30;99.90
12811;DHT22;6470;47.654;7.896;2024-02-04T12:29:23;9.10;99.90
12811;DHT22;6470;47.654;7.896;2024-02-04T12:31:58;9.30;99.90
12811;DHT22;6470;47.654;7.896;2024-02-04T12:34:24;9.20;99.90
12811;DHT22;6470;47.654;7.896;2024-02-04T12:36:57;9.40;99.90
12811;DHT22;6470;47.654;7.896;2024-02-04T12:39:24;9.60;99.90
12811;DHT22;6470;47.654;7.896;2024-02-04T12:41:53;9.30;99.90
12811;DHT22;6470;47.654;7.896;2024-02-04T12:44:19;9.10;99.90
12811;DHT22;6470;47.654;7.896;2024-02-04T12:46:45;9.20;99.90
12811;DHT22;6470;47.654;7.896;2024-02-04T12:49:20;8.50;99.90
12811;DHT22;6470;47.654;7.896;2024-02-04T12:54:17;9.60;99.90
12811;DHT22;6470;47.654;7.896;2024-02-04T12:56:47;9.70;99.90
12811;DHT22;6470;47.654;7.896;2024-02-04T12:59:30;9.60;99.90
12811;DHT22;6470;47.654;7.896;2024-02-04T13:02:01;9.90;99.90
12811;DHT22;6470;47.654;7.896;2024-02-04T13:04:33;9.70;99.90
12811;DHT22;6470;47.654;7.896;2024-02-04T13:06:59;9.90;99.90
12811;DHT22;6470;47.654;7.896;2024-02-04T13:09:25;10.40;99.90
12811;DHT22;6470;47.654;7.896;2024-02-04T13:14:17;9.40;99.90
12811;DHT22;6470;47.654;7.896;2024-02-04T13:16:43;9.30;99.90
12811;DHT22;6470;47.654;7.896;2024-02-04T13:19:08;9.30;99.90
12811;DHT22;6470;47.654;7.896;2024-02-04T13:21:34;10.10;99.90
12811;DHT22;6470;47.654;7.896;2024-02-04T13:24:00;9.30;99.90
12811;DHT22;6470;47.654;7.896;2024-02-04T13:26:26;10.00;99.90
12811;DHT22;6470;47.654;7.896;2024-02-04T13:28:51;9.80;99.90
12811;DHT22;6470;47.654;7.896;2024-02-04T13:31:17;9.80;99.90
12811;DHT22;6470;47.654;7.896;2024-02-04T13:33:43;9.40;99.90
12811;DHT22;6470;47.654;7.896;2024-02-04T13:36:09;9.60;99.90
12811;DHT22;6470;47.654;7.896;2024-02-04T13:38:35;9.00;99.90
12811;DHT22;6470;47.654;7.896;2024-02-04T13:41:02;9.00;99.90
12811;DHT22;6470;47.654;7.896;2024-02-04T13:43:30;9.70;99.90
12811;DHT22;6470;47.654;7.896;2024-02-04T13:45:55;9.40;99.90
12811;DHT22;6470;47.654;7.896;2024-02-04T13:50:50;9.30;99.90
12811;DHT22;6470;47.654;7.896;2024-02-04T13:53:15;9.30;99.90
12811;DHT22;6470;47.654;7.896;2024-02-04T13:55:41;9.40;99.90
12811;DHT22;6470;47.654;7.896;2024-02-04T14:00:33;8.90;99.90
12811;DHT22;6470;47.654;7.896;2024-02-04T14:02:59;8.10;99.90
12811;DHT22;6470;47.654;7.896;2024-02-04T14:05:24;8.50;99.90
12811;DHT22;6470;47.654;7.896;2024-02-04T14:10:16;8.60;99.90
12811;DHT22;6470;47.654;7.896;2024-02-04T14:17:37;8.80;99.90
12811;DHT22;6470;47.654;7.896;2024-02-04T14:20:04;9.50;99.90
12811;DHT22;6470;47.654;7.896;2024-02-04T14:24:56;8.90;99.90
12811;DHT22;6470;47.654;7.896;2024-02-04T14:27:22;9.10;99.90
12811;DHT22;6470;47.654;7.896;2024-02-04T14:29:48;8.70;99.90
12811;DHT22;6470;47.654;7.896;2024-02-04T14:32:14;9.30;99.90
12811;DHT22;6470;47.654;7.896;2024-02-04T14:37:06;9.10;99.90
12811;DHT22;6470;47.654;7.896;2024-02-04T14:39:32;9.10;99.90
12811;DHT22;6470;47.654;7.896;2024-02-04T14:41:58;9.40;99.90
12811;DHT22;6470;47.654;7.896;2024-02-04T14:44:23;9.10;99.90
12811;DHT22;6470;47.654;7.896;2024-02-04T14:46:49;9.00;99.90
12811;DHT22;6470;47.654;7.896;2024-02-04T14:49:15;9.20;99.90
12811;DHT22;6470;47.654;7.896;2024-02-04T14:51:41;9.10;99.90
12811;DHT22;6470;47.654;7.896;2024-02-04T14:56:40;9.30;99.90
12811;DHT22;6470;47.654;7.896;2024-02-04T14:59:09;9.10;99.90
12811;DHT22;6470;47.654;7.896;2024-02-04T15:04:01;8.50;99.90
12811;DHT22;6470;47.654;7.896;2024-02-04T15:08:55;9.20;99.90
12811;DHT22;6470;47.654;7.896;2024-02-04T15:11:22;8.90;99.90
12811;DHT22;6470;47.654;7.896;2024-02-04T15:13:48;8.50;99.90
12811;DHT22;6470;47.654;7.896;2024-02-04T15:16:14;8.80;99.90
12811;DHT22;6470;47.654;7.896;2024-02-04T15:18:40;8.50;99.90
12811;DHT22;6470;47.654;7.896;2024-02-04T15:21:06;9.00;99.90
12811;DHT22;6470;47.654;7.896;2024-02-04T15:23:32;8.40;99.90
12811;DHT22;6470;47.654;7.896;2024-02-04T15:25:59;8.10;99.90
12811;DHT22;6470;47.654;7.896;2024-02-04T15:28:25;8.00;99.90
12811;DHT22;6470;47.654;7.896;2024-02-04T15:30:51;8.00;99.90
12811;DHT22;6470;47.654;7.896;2024-02-04T15:33:17;4.50;99.90
12811;DHT22;6470;47.654;7.896;2024-02-04T15:35:43;4.80;99.90
12811;DHT22;6470;47.654;7.896;2024-02-04T15:40:35;8.40;99.90
12811;DHT22;6470;47.654;7.896;2024-02-04T15:43:01;7.80;99.90
12811;DHT22;6470;47.654;7.896;2024-02-04T15:47:54;6.90;99.90
12811;DHT22;6470;47.654;7.896;2024-02-04T15:50:21;8.50;99.90
12811;DHT22;6470;47.654;7.896;2024-02-04T15:52:47;4.70;99.90
12811;DHT22;6470;47.654;7.896;2024-02-04T15:55:15;8.20;99.90
12811;DHT22;6470;47.654;7.896;2024-02-04T15:57:46;7.90;99.90
12811;DHT22;6470;47.654;7.896;2024-02-04T16:00:15;7.30;99.90
12811;DHT22;6470;47.654;7.896;2024-02-04T16:02:50;7.30;99.90
12811;DHT22;6470;47.654;7.896;2024-02-04T16:05:17;7.00;99.90
12811;DHT22;6470;47.654;7.896;2024-02-04T16:07:43;8.00;99.90
12811;DHT22;6470;47.654;7.896;2024-02-04T16:10:14;7.50;99.90
12811;DHT22;6470;47.654;7.896;2024-02-04T16:12:57;4.70;99.90
12811;DHT22;6470;47.654;7.896;2024-02-04T16:15:25;8.40;99.90
12811;DHT22;6470;47.654;7.896;2024-02-04T16:17:51;8.30;99.90
12811;DHT22;6470;47.654;7.896;2024-02-04T16:20:18;7.60;99.90
12811;DHT22;6470;47.654;7.896;2024-02-04T16:25:10;7.90;99.90
12811;DHT22;6470;47.654;7.896;2024-02-04T16:27:36;7.80;99.90
12811;DHT22;6470;47.654;7.896;2024-02-04T16:30:02;7.90;99.90
12811;DHT22;6470;47.654;7.896;2024-02-04T16:32:29;7.60;99.90
12811;DHT22;6470;47.654;7.896;2024-02-04T16:37:22;7.90;99.90
12811;DHT22;6470;47.654;7.896;2024-02-04T16:39:48;7.80;99.90
12811;DHT22;6470;47.654;7.896;2024-02-04T16:42:14;4.20;99.90
12811;DHT22;6470;47.654;7.896;2024-02-04T16:44:40;4.10;99.90
12811;DHT22;6470;47.654;7.896;2024-02-04T16:47:06;4.00;99.90
12811;DHT22;6470;47.654;7.896;2024-02-04T16:49:31;7.90;99.90
12811;DHT22;6470;47.654;7.896;2024-02-04T16:51:57;7.70;99.90
12811;DHT22;6470;47.654;7.896;2024-02-04T16:59:20;7.10;99.90
12811;DHT22;6470;47.654;7.896;2024-02-04T17:01:46;6.70;99.90
12811;DHT22;6470;47.654;7.896;2024-02-04T17:04:12;7.20;99.90
12811;DHT22;6470;47.654;7.896;2024-02-04T17:06:38;6.90;99.90
12811;DHT22;6470;47.654;7.896;2024-02-04T17:11:46;7.50;99.90
12811;DHT22;6470;47.654;7.896;2024-02-04T17:14:12;7.50;99.90
12811;DHT22;6470;47.654;7.896;2024-02-04T17:22:00;7.40;99.90
12811;DHT22;6470;47.654;7.896;2024-02-04T17:24:33;3.40;99.90
12811;DHT22;6470;47.654;7.896;2024-02-04T17:27:04;6.40;99.90
12811;DHT22;6470;47.654;7.896;2024-02-04T17:29:31;6.30;99.90
12811;DHT22;6470;47.654;7.896;2024-02-04T17:36:51;6.50;99.90
12811;DHT22;6470;47.654;7.896;2024-02-04T17:39:17;6.80;99.90
12811;DHT22;6470;47.654;7.896;2024-02-04T17:41:42;6.80;99.90
12811;DHT22;6470;47.654;7.896;2024-02-04T17:44:09;3.80;99.90
12811;DHT22;6470;47.654;7.896;2024-02-04T17:46:34;3.20;99.90
12811;DHT22;6470;47.654;7.896;2024-02-04T17:49:00;6.90;99.90
12811;DHT22;6470;47.654;7.896;2024-02-04T17:51:27;7.00;99.90
12811;DHT22;6470;47.654;7.896;2024-02-04T17:53:53;5.70;99.90
12811;DHT22;6470;47.654;7.896;2024-02-04T17:56:19;6.10;99.90
12811;DHT22;6470;47.654;7.896;2024-02-04T17:58:45;3.80;99.90
12811;DHT22;6470;47.654;7.896;2024-02-04T18:01:19;7.10;99.90
12811;DHT22;6470;47.654;7.896;2024-02-04T18:03:45;6.70;99.90
12811;DHT22;6470;47.654;7.896;2024-02-04T18:06:11;7.00;99.90
12811;DHT22;6470;47.654;7.896;2024-02-04T18:08:39;7.00;99.90
12811;DHT22;6470;47.654;7.896;2024-02-04T18:11:20;7.00;99.90
12811;DHT22;6470;47.654;7.896;2024-02-04T18:13:51;6.70;99.90
12811;DHT22;6470;47.654;7.896;2024-02-04T18:16:18;6.60;99.90
12811;DHT22;6470;47.654;7.896;2024-02-04T18:21:19;6.70;99.90
12811;DHT22;6470;47.654;7.896;2024-02-04T18:26:26;3.50;99.90
12811;DHT22;6470;47.654;7.896;2024-02-04T18:28:53;6.10;99.90
12811;DHT22;6470;47.654;7.896;2024-02-04T18:31:20;3.20;99.90
12811;DHT22;6470;47.654;7.896;2024-02-04T18:33:46;7.00;99.90
12811;DHT22;6470;47.654;7.896;2024-02-04T18:36:14;6.90;99.90
12811;DHT22;6470;47.654;7.896;2024-02-04T18:38:41;6.20;99.90
12811;DHT22;6470;47.654;7.896;2024-02-04T18:41:08;6.10;99.90
12811;DHT22;6470;47.654;7.896;2024-02-04T18:43:37;6.20;99.90
12811;DHT22;6470;47.654;7.896;2024-02-04T18:46:03;6.20;99.90
12811;DHT22;6470;47.654;7.896;2024-02-04T18:48:31;6.50;99.90
12811;DHT22;6470;47.654;7.896;2024-02-04T18:50:57;6.40;99.90
12811;DHT22;6470;47.654;7.896;2024-02-04T18:53:23;5.90;99.90
12811;DHT22;6470;47.654;7.896;2024-02-04T18:55:50;6.20;99.90
12811;DHT22;6470;47.654;7.896;2024-02-04T18:58:17;5.50;99.90
12811;DHT22;6470;47.654;7.896;2024-02-04T19:00:42;2.60;99.90
12811;DHT22;6470;47.654;7.896;2024-02-04T19:03:10;2.50;99.90
12811;DHT22;6470;47.654;7.896;2024-02-04T19:05:38;1.90;99.90
12811;DHT22;6470;47.654;7.896;2024-02-04T19:08:06;5.90;99.90
12811;DHT22;6470;47.654;7.896;2024-02-04T19:13:00;5.10;99.90
12811;DHT22;6470;47.654;7.896;2024-02-04T19:15:27;5.50;99.90
12811;DHT22;6470;47.654;7.896;2024-02-04T19:17:53;5.50;99.90
12811;DHT22;6470;47.654;7.896;2024-02-04T19:20:19;5.10;99.90
12811;DHT22;6470;47.654;7.896;2024-02-04T19:22:45;4.50;99.90
12811;DHT22;6470;47.654;7.896;2024-02-04T19:25:13;4.50;99.90
12811;DHT22;6470;47.654;7.896;2024-02-04T19:30:14;1.50;99.90